sensor_id;sensor_type;location;lat;lon;timestamp;P1;durP1;ratioP1;P2;durP2;ratioP2
4957;SDS011;2494;51.872;9.688;2023-07-13T00:02:09;2.43;;;2.23;;
4957;SDS011;2494;51.872;9.688;2023-07-13T00:04:55;3.93;;;2.27;;
4957;SDS011;2494;51.872;9.688;2023-07-13T00:07:40;3.07;;;2.53;;
4957;SDS011;2494;51.872;9.688;2023-07-13T00:10:26;2.63;;;2.13;;
4957;SDS011;2494;51.872;9.688;2023-07-13T00:13:11;3.10;;;1.90;;
4957;SDS011;2494;51.872;9.688;2023-07-13T00:15:57;2.10;;;1.90;;
4957;SDS011;2494;51.872;9.688;2023-07-13T00:18:42;2.97;;;2.10;;
4957;SDS011;2494;51.872;9.688;2023-07-13T00:21:27;4.27;;;2.47;;
4957;SDS011;2494;51.872;9.688;2023-07-13T00:24:13;4.70;;;2.20;;
4957;SDS011;2494;51.872;9.688;2023-07-13T00:27:00;2.00;;;1.90;;
4957;SDS011;2494;51.872;9.688;2023-07-13T00:29:45;3.10;;;2.50;;
4957;SDS011;2494;51.872;9.688;2023-07-13T00:32:30;3.70;;;2.40;;
4957;SDS011;2494;51.872;9.688;2023-07-13T00:35:15;3.30;;;2.10;;
4957;SDS011;2494;51.872;9.688;2023-07-13T00:38:00;3.23;;;2.20;;
4957;SDS011;2494;51.872;9.688;2023-07-13T00:40:46;3.30;;;2.10;;
4957;SDS011;2494;51.872;9.688;2023-07-13T00:43:32;2.60;;;2.20;;
4957;SDS011;2494;51.872;9.688;2023-07-13T00:46:19;5.60;;;2.57;;
4957;SDS011;2494;51.872;9.688;2023-07-13T00:49:05;2.50;;;2.30;;
4957;SDS011;2494;51.872;9.688;2023-07-13T00:51:52;2.57;;;2.20;;
4957;SDS011;2494;51.872;9.688;2023-07-13T00:54:39;3.17;;;2.10;;
4957;SDS011;2494;51.872;9.688;2023-07-13T00:57:24;3.03;;;2.73;;
4957;SDS011;2494;51.872;9.688;2023-07-13T01:00:12;6.43;;;3.00;;
4957;SDS011;2494;51.872;9.688;2023-07-13T01:02:57;2.63;;;2.43;;
4957;SDS011;2494;51.872;9.688;2023-07-13T01:05:42;3.17;;;2.37;;
4957;SDS011;2494;51.872;9.688;2023-07-13T01:08:28;4.63;;;2.70;;
4957;SDS011;2494;51.872;9.688;2023-07-13T01:11:12;2.80;;;2.60;;
4957;SDS011;2494;51.872;9.688;2023-07-13T01:14:02;4.10;;;3.10;;
4957;SDS011;2494;51.872;9.688;2023-07-13T01:16:49;4.00;;;2.73;;
4957;SDS011;2494;51.872;9.688;2023-07-13T01:19:35;3.23;;;2.70;;
4957;SDS011;2494;51.872;9.688;2023-07-13T01:22:22;2.93;;;2.73;;
4957;SDS011;2494;51.872;9.688;2023-07-13T01:25:09;3.10;;;2.80;;
4957;SDS011;2494;51.872;9.688;2023-07-13T01:27:55;2.80;;;2.50;;
4957;SDS011;2494;51.872;9.688;2023-07-13T01:30:40;3.50;;;3.30;;
4957;SDS011;2494;51.872;9.688;2023-07-13T01:33:27;2.63;;;2.43;;
4957;SDS011;2494;51.872;9.688;2023-07-13T01:36:11;4.97;;;3.73;;
4957;SDS011;2494;51.872;9.688;2023-07-13T01:38:58;3.30;;;3.10;;
4957;SDS011;2494;51.872;9.688;2023-07-13T01:41:43;5.50;;;3.33;;
4957;SDS011;2494;51.872;9.688;2023-07-13T01:44:28;4.40;;;3.00;;
4957;SDS011;2494;51.872;9.688;2023-07-13T01:47:13;7.37;;;4.10;;
4957;SDS011;2494;51.872;9.688;2023-07-13T01:49:58;3.43;;;3.13;;
4957;SDS011;2494;51.872;9.688;2023-07-13T01:52:43;4.73;;;3.70;;
4957;SDS011;2494;51.872;9.688;2023-07-13T01:55:29;7.67;;;3.43;;
4957;SDS011;2494;51.872;9.688;2023-07-13T01:58:14;7.00;;;3.80;;
4957;SDS011;2494;51.872;9.688;2023-07-13T02:00:59;3.80;;;3.60;;
4957;SDS011;2494;51.872;9.688;2023-07-13T02:03:44;3.47;;;3.17;;
4957;SDS011;2494;51.872;9.688;2023-07-13T02:06:30;3.40;;;2.77;;
4957;SDS011;2494;51.872;9.688;2023-07-13T02:09:15;6.13;;;3.50;;
4957;SDS011;2494;51.872;9.688;2023-07-13T02:12:01;6.17;;;3.20;;
4957;SDS011;2494;51.872;9.688;2023-07-13T02:14:47;9.30;;;3.23;;
4957;SDS011;2494;51.872;9.688;2023-07-13T02:17:32;2.80;;;2.43;;
4957;SDS011;2494;51.872;9.688;2023-07-13T02:20:17;2.97;;;2.77;;
4957;SDS011;2494;51.872;9.688;2023-07-13T02:23:02;4.37;;;2.97;;
4957;SDS011;2494;51.872;9.688;2023-07-13T02:25:47;8.00;;;2.77;;
4957;SDS011;2494;51.872;9.688;2023-07-13T02:28:33;6.10;;;3.47;;
4957;SDS011;2494;51.872;9.688;2023-07-13T02:31:18;4.33;;;3.17;;
4957;SDS011;2494;51.872;9.688;2023-07-13T02:34:03;3.70;;;3.40;;
4957;SDS011;2494;51.872;9.688;2023-07-13T02:36:48;5.60;;;3.00;;
4957;SDS011;2494;51.872;9.688;2023-07-13T02:39:33;6.13;;;3.27;;
4957;SDS011;2494;51.872;9.688;2023-07-13T02:42:18;4.37;;;2.93;;
4957;SDS011;2494;51.872;9.688;2023-07-13T02:45:05;3.50;;;2.77;;
4957;SDS011;2494;51.872;9.688;2023-07-13T02:47:50;4.17;;;2.90;;
4957;SDS011;2494;51.872;9.688;2023-07-13T02:50:36;3.30;;;3.00;;
4957;SDS011;2494;51.872;9.688;2023-07-13T02:53:21;5.07;;;4.53;;
4957;SDS011;2494;51.872;9.688;2023-07-13T02:56:05;3.63;;;2.87;;
4957;SDS011;2494;51.872;9.688;2023-07-13T02:58:50;5.33;;;3.40;;
4957;SDS011;2494;51.872;9.688;2023-07-13T03:01:37;2.80;;;2.60;;
4957;SDS011;2494;51.872;9.688;2023-07-13T03:04:22;3.60;;;3.00;;
4957;SDS011;2494;51.872;9.688;2023-07-13T03:07:07;5.03;;;3.43;;
4957;SDS011;2494;51.872;9.688;2023-07-13T03:09:53;3.07;;;2.87;;
4957;SDS011;2494;51.872;9.688;2023-07-13T03:12:39;3.93;;;3.00;;
4957;SDS011;2494;51.872;9.688;2023-07-13T03:15:23;7.70;;;2.80;;
4957;SDS011;2494;51.872;9.688;2023-07-13T03:18:10;5.80;;;3.20;;
4957;SDS011;2494;51.872;9.688;2023-07-13T03:20:55;2.87;;;2.60;;
4957;SDS011;2494;51.872;9.688;2023-07-13T03:23:40;4.90;;;2.97;;
4957;SDS011;2494;51.872;9.688;2023-07-13T03:26:25;4.00;;;3.70;;
4957;SDS011;2494;51.872;9.688;2023-07-13T03:29:10;3.70;;;3.40;;
4957;SDS011;2494;51.872;9.688;2023-07-13T03:31:55;5.23;;;3.30;;
4957;SDS011;2494;51.872;9.688;2023-07-13T03:34:42;5.23;;;3.30;;
4957;SDS011;2494;51.872;9.688;2023-07-13T03:37:27;8.20;;;3.50;;
4957;SDS011;2494;51.872;9.688;2023-07-13T03:40:12;8.47;;;3.60;;
4957;SDS011;2494;51.872;9.688;2023-07-13T03:42:57;3.90;;;3.60;;
4957;SDS011;2494;51.872;9.688;2023-07-13T03:45:43;7.50;;;3.83;;
4957;SDS011;2494;51.872;9.688;2023-07-13T03:48:28;4.13;;;3.00;;
4957;SDS011;2494;51.872;9.688;2023-07-13T03:51:15;5.73;;;3.63;;
4957;SDS011;2494;51.872;9.688;2023-07-13T03:54:00;4.10;;;3.20;;
4957;SDS011;2494;51.872;9.688;2023-07-13T03:56:46;7.77;;;3.90;;
4957;SDS011;2494;51.872;9.688;2023-07-13T03:59:31;4.27;;;3.33;;
4957;SDS011;2494;51.872;9.688;2023-07-13T04:02:16;3.97;;;3.67;;
4957;SDS011;2494;51.872;9.688;2023-07-13T04:05:01;5.27;;;2.90;;
4957;SDS011;2494;51.872;9.688;2023-07-13T04:07:48;5.20;;;3.50;;
4957;SDS011;2494;51.872;9.688;2023-07-13T04:10:33;3.50;;;3.30;;
4957;SDS011;2494;51.872;9.688;2023-07-13T04:13:18;3.73;;;3.20;;
4957;SDS011;2494;51.872;9.688;2023-07-13T04:16:03;3.87;;;3.57;;
4957;SDS011;2494;51.872;9.688;2023-07-13T04:18:49;4.83;;;3.13;;
4957;SDS011;2494;51.872;9.688;2023-07-13T04:21:34;7.67;;;3.97;;
4957;SDS011;2494;51.872;9.688;2023-07-13T04:24:20;6.23;;;3.70;;
4957;SDS011;2494;51.872;9.688;2023-07-13T04:27:06;3.67;;;3.00;;
4957;SDS011;2494;51.872;9.688;2023-07-13T04:29:50;2.87;;;2.67;;
4957;SDS011;2494;51.872;9.688;2023-07-13T04:32:36;2.90;;;2.53;;
4957;SDS011;2494;51.872;9.688;2023-07-13T04:35:21;3.47;;;2.20;;
4957;SDS011;2494;51.872;9.688;2023-07-13T04:38:06;2.97;;;2.20;;
4957;SDS011;2494;51.872;9.688;2023-07-13T04:40:54;2.57;;;2.20;;
4957;SDS011;2494;51.872;9.688;2023-07-13T04:43:39;4.40;;;2.30;;
4957;SDS011;2494;51.872;9.688;2023-07-13T04:46:24;4.00;;;2.53;;
4957;SDS011;2494;51.872;9.688;2023-07-13T04:49:09;2.80;;;2.30;;
4957;SDS011;2494;51.872;9.688;2023-07-13T04:51:54;5.63;;;2.57;;
4957;SDS011;2494;51.872;9.688;2023-07-13T04:54:39;7.30;;;3.03;;
4957;SDS011;2494;51.872;9.688;2023-07-13T04:57:26;4.60;;;2.47;;
4957;SDS011;2494;51.872;9.688;2023-07-13T05:00:11;4.23;;;2.27;;
4957;SDS011;2494;51.872;9.688;2023-07-13T05:02:57;3.93;;;3.10;;
4957;SDS011;2494;51.872;9.688;2023-07-13T05:05:42;4.53;;;2.03;;
4957;SDS011;2494;51.872;9.688;2023-07-13T05:08:27;4.50;;;2.23;;
4957;SDS011;2494;51.872;9.688;2023-07-13T05:11:12;9.47;;;2.80;;
4957;SDS011;2494;51.872;9.688;2023-07-13T05:13:58;4.73;;;2.17;;
4957;SDS011;2494;51.872;9.688;2023-07-13T05:16:44;4.00;;;2.43;;
4957;SDS011;2494;51.872;9.688;2023-07-13T05:19:29;3.53;;;1.60;;
4957;SDS011;2494;51.872;9.688;2023-07-13T05:22:14;5.00;;;1.80;;
4957;SDS011;2494;51.872;9.688;2023-07-13T05:24:59;2.07;;;1.50;;
4957;SDS011;2494;51.872;9.688;2023-07-13T05:27:44;4.80;;;2.40;;
4957;SDS011;2494;51.872;9.688;2023-07-13T05:30:32;4.23;;;2.07;;
4957;SDS011;2494;51.872;9.688;2023-07-13T05:33:17;3.00;;;1.80;;
4957;SDS011;2494;51.872;9.688;2023-07-13T05:36:02;4.40;;;1.63;;
4957;SDS011;2494;51.872;9.688;2023-07-13T05:38:47;3.60;;;1.60;;
4957;SDS011;2494;51.872;9.688;2023-07-13T05:41:32;5.17;;;1.67;;
4957;SDS011;2494;51.872;9.688;2023-07-13T05:44:17;4.23;;;1.70;;
4957;SDS011;2494;51.872;9.688;2023-07-13T05:47:05;2.33;;;1.50;;
4957;SDS011;2494;51.872;9.688;2023-07-13T05:49:50;7.17;;;1.90;;
4957;SDS011;2494;51.872;9.688;2023-07-13T05:52:35;3.03;;;1.70;;
4957;SDS011;2494;51.872;9.688;2023-07-13T05:55:21;2.30;;;1.73;;
4957;SDS011;2494;51.872;9.688;2023-07-13T05:58:06;5.80;;;1.70;;
4957;SDS011;2494;51.872;9.688;2023-07-13T06:00:58;2.40;;;1.60;;
4957;SDS011;2494;51.872;9.688;2023-07-13T06:03:44;4.57;;;1.90;;
4957;SDS011;2494;51.872;9.688;2023-07-13T06:06:30;5.40;;;1.50;;
4957;SDS011;2494;51.872;9.688;2023-07-13T06:09:15;4.00;;;1.43;;
4957;SDS011;2494;51.872;9.688;2023-07-13T06:12:00;6.00;;;1.63;;
4957;SDS011;2494;51.872;9.688;2023-07-13T06:14:45;2.90;;;1.40;;
4957;SDS011;2494;51.872;9.688;2023-07-13T06:17:30;1.90;;;1.40;;
4957;SDS011;2494;51.872;9.688;2023-07-13T06:20:17;1.97;;;1.40;;
4957;SDS011;2494;51.872;9.688;2023-07-13T06:23:02;2.93;;;1.30;;
4957;SDS011;2494;51.872;9.688;2023-07-13T06:25:46;1.70;;;1.10;;
4957;SDS011;2494;51.872;9.688;2023-07-13T06:28:33;4.30;;;1.60;;
4957;SDS011;2494;51.872;9.688;2023-07-13T06:31:18;3.77;;;1.20;;
4957;SDS011;2494;51.872;9.688;2023-07-13T06:34:03;2.47;;;1.50;;
4957;SDS011;2494;51.872;9.688;2023-07-13T06:36:49;3.23;;;1.07;;
4957;SDS011;2494;51.872;9.688;2023-07-13T06:39:34;2.23;;;1.30;;
4957;SDS011;2494;51.872;9.688;2023-07-13T06:42:19;2.43;;;1.50;;
4957;SDS011;2494;51.872;9.688;2023-07-13T06:45:05;3.63;;;1.43;;
4957;SDS011;2494;51.872;9.688;2023-07-13T06:47:50;1.87;;;1.23;;
4957;SDS011;2494;51.872;9.688;2023-07-13T06:50:35;3.23;;;1.40;;
4957;SDS011;2494;51.872;9.688;2023-07-13T06:53:21;2.70;;;1.20;;
4957;SDS011;2494;51.872;9.688;2023-07-13T06:56:07;2.33;;;1.20;;
4957;SDS011;2494;51.872;9.688;2023-07-13T06:58:52;6.83;;;1.40;;
4957;SDS011;2494;51.872;9.688;2023-07-13T07:01:37;3.73;;;1.20;;
4957;SDS011;2494;51.872;9.688;2023-07-13T07:04:22;2.70;;;1.07;;
4957;SDS011;2494;51.872;9.688;2023-07-13T07:07:07;1.97;;;1.23;;
4957;SDS011;2494;51.872;9.688;2023-07-13T07:09:54;2.10;;;1.13;;
4957;SDS011;2494;51.872;9.688;2023-07-13T07:12:39;2.70;;;1.20;;
4957;SDS011;2494;51.872;9.688;2023-07-13T07:15:25;2.33;;;1.20;;
4957;SDS011;2494;51.872;9.688;2023-07-13T07:18:10;2.33;;;1.27;;
4957;SDS011;2494;51.872;9.688;2023-07-13T07:20:55;2.53;;;1.60;;
4957;SDS011;2494;51.872;9.688;2023-07-13T07:23:41;3.43;;;1.30;;
4957;SDS011;2494;51.872;9.688;2023-07-13T07:26:27;2.53;;;1.90;;
4957;SDS011;2494;51.872;9.688;2023-07-13T07:29:12;5.00;;;1.90;;
4957;SDS011;2494;51.872;9.688;2023-07-13T07:31:58;4.27;;;1.30;;
4957;SDS011;2494;51.872;9.688;2023-07-13T07:34:43;2.90;;;1.43;;
4957;SDS011;2494;51.872;9.688;2023-07-13T07:37:28;3.00;;;1.27;;
4957;SDS011;2494;51.872;9.688;2023-07-13T07:40:13;2.57;;;1.20;;
4957;SDS011;2494;51.872;9.688;2023-07-13T07:43:00;3.10;;;1.40;;
4957;SDS011;2494;51.872;9.688;2023-07-13T07:45:45;3.10;;;1.30;;
4957;SDS011;2494;51.872;9.688;2023-07-13T07:48:30;3.43;;;1.40;;
4957;SDS011;2494;51.872;9.688;2023-07-13T07:51:15;4.47;;;1.40;;
4957;SDS011;2494;51.872;9.688;2023-07-13T07:54:00;2.77;;;1.43;;
4957;SDS011;2494;51.872;9.688;2023-07-13T07:56:45;2.03;;;1.40;;
4957;SDS011;2494;51.872;9.688;2023-07-13T07:59:31;3.30;;;1.20;;
4957;SDS011;2494;51.872;9.688;2023-07-13T08:02:16;2.37;;;1.00;;
4957;SDS011;2494;51.872;9.688;2023-07-13T08:05:02;4.63;;;1.40;;
4957;SDS011;2494;51.872;9.688;2023-07-13T08:07:47;2.50;;;1.13;;
4957;SDS011;2494;51.872;9.688;2023-07-13T08:10:34;3.10;;;1.10;;
4957;SDS011;2494;51.872;9.688;2023-07-13T08:13:19;3.30;;;1.87;;
4957;SDS011;2494;51.872;9.688;2023-07-13T08:16:06;3.00;;;1.40;;
4957;SDS011;2494;51.872;9.688;2023-07-13T08:18:51;2.37;;;1.20;;
4957;SDS011;2494;51.872;9.688;2023-07-13T08:21:36;2.03;;;1.10;;
4957;SDS011;2494;51.872;9.688;2023-07-13T08:24:21;3.73;;;1.40;;
4957;SDS011;2494;51.872;9.688;2023-07-13T08:27:06;1.90;;;1.30;;
4957;SDS011;2494;51.872;9.688;2023-07-13T08:29:51;3.00;;;1.10;;
4957;SDS011;2494;51.872;9.688;2023-07-13T08:32:38;3.30;;;1.30;;
4957;SDS011;2494;51.872;9.688;2023-07-13T08:35:23;2.60;;;1.40;;
4957;SDS011;2494;51.872;9.688;2023-07-13T08:38:09;1.73;;;1.00;;
4957;SDS011;2494;51.872;9.688;2023-07-13T08:40:55;1.40;;;1.20;;
4957;SDS011;2494;51.872;9.688;2023-07-13T08:43:40;3.57;;;1.20;;
4957;SDS011;2494;51.872;9.688;2023-07-13T08:46:28;3.37;;;1.43;;
4957;SDS011;2494;51.872;9.688;2023-07-13T08:49:19;2.00;;;1.07;;
4957;SDS011;2494;51.872;9.688;2023-07-13T08:52:09;1.70;;;1.20;;
4957;SDS011;2494;51.872;9.688;2023-07-13T08:54:56;5.17;;;1.27;;
4957;SDS011;2494;51.872;9.688;2023-07-13T08:57:44;4.43;;;1.37;;
4957;SDS011;2494;51.872;9.688;2023-07-13T09:00:33;5.57;;;1.30;;
4957;SDS011;2494;51.872;9.688;2023-07-13T09:03:23;1.50;;;1.20;;
4957;SDS011;2494;51.872;9.688;2023-07-13T09:06:10;4.40;;;1.30;;
4957;SDS011;2494;51.872;9.688;2023-07-13T09:08:58;2.77;;;1.60;;
4957;SDS011;2494;51.872;9.688;2023-07-13T09:11:47;3.00;;;1.37;;
4957;SDS011;2494;51.872;9.688;2023-07-13T09:14:38;3.93;;;1.57;;
4957;SDS011;2494;51.872;9.688;2023-07-13T09:17:25;3.87;;;1.33;;
4957;SDS011;2494;51.872;9.688;2023-07-13T09:20:14;1.77;;;1.30;;
4957;SDS011;2494;51.872;9.688;2023-07-13T09:23:04;2.40;;;1.23;;
4957;SDS011;2494;51.872;9.688;2023-07-13T09:25:51;2.47;;;1.60;;
4957;SDS011;2494;51.872;9.688;2023-07-13T09:28:39;3.10;;;1.50;;
4957;SDS011;2494;51.872;9.688;2023-07-13T09:31:26;2.47;;;1.50;;
4957;SDS011;2494;51.872;9.688;2023-07-13T09:34:13;2.30;;;1.50;;
4957;SDS011;2494;51.872;9.688;2023-07-13T09:36:58;3.37;;;1.40;;
4957;SDS011;2494;51.872;9.688;2023-07-13T09:39:45;2.83;;;1.33;;
4957;SDS011;2494;51.872;9.688;2023-07-13T09:42:31;1.93;;;1.30;;
4957;SDS011;2494;51.872;9.688;2023-07-13T09:45:26;2.30;;;1.23;;
4957;SDS011;2494;51.872;9.688;2023-07-13T09:48:12;5.93;;;1.40;;
4957;SDS011;2494;51.872;9.688;2023-07-13T09:50:57;5.37;;;1.40;;
4957;SDS011;2494;51.872;9.688;2023-07-13T09:53:51;1.70;;;1.53;;
4957;SDS011;2494;51.872;9.688;2023-07-13T09:56:38;2.90;;;1.37;;
4957;SDS011;2494;51.872;9.688;2023-07-13T09:59:24;2.17;;;1.30;;
4957;SDS011;2494;51.872;9.688;2023-07-13T10:02:22;4.13;;;1.60;;
4957;SDS011;2494;51.872;9.688;2023-07-13T10:05:10;5.00;;;1.30;;
4957;SDS011;2494;51.872;9.688;2023-07-13T10:07:55;3.10;;;1.60;;
4957;SDS011;2494;51.872;9.688;2023-07-13T10:10:40;6.70;;;1.50;;
4957;SDS011;2494;51.872;9.688;2023-07-13T10:13:31;3.60;;;1.37;;
4957;SDS011;2494;51.872;9.688;2023-07-13T10:16:18;2.00;;;1.40;;
4957;SDS011;2494;51.872;9.688;2023-07-13T10:19:04;3.13;;;1.37;;
4957;SDS011;2494;51.872;9.688;2023-07-13T10:21:52;4.57;;;1.63;;
4957;SDS011;2494;51.872;9.688;2023-07-13T10:24:39;5.43;;;1.50;;
4957;SDS011;2494;51.872;9.688;2023-07-13T10:27:26;3.57;;;1.43;;
4957;SDS011;2494;51.872;9.688;2023-07-13T10:30:17;3.73;;;1.67;;
4957;SDS011;2494;51.872;9.688;2023-07-13T10:33:08;2.53;;;1.30;;
4957;SDS011;2494;51.872;9.688;2023-07-13T10:35:56;3.30;;;1.60;;
4957;SDS011;2494;51.872;9.688;2023-07-13T10:38:42;3.20;;;1.57;;
4957;SDS011;2494;51.872;9.688;2023-07-13T10:41:28;3.50;;;1.97;;
4957;SDS011;2494;51.872;9.688;2023-07-13T10:44:17;5.47;;;1.50;;
4957;SDS011;2494;51.872;9.688;2023-07-13T10:47:06;3.20;;;1.43;;
4957;SDS011;2494;51.872;9.688;2023-07-13T10:49:52;2.60;;;1.80;;
4957;SDS011;2494;51.872;9.688;2023-07-13T10:52:42;2.70;;;1.43;;
4957;SDS011;2494;51.872;9.688;2023-07-13T10:55:35;3.00;;;1.70;;
4957;SDS011;2494;51.872;9.688;2023-07-13T10:58:22;2.20;;;1.50;;
4957;SDS011;2494;51.872;9.688;2023-07-13T11:01:08;4.90;;;1.77;;
4957;SDS011;2494;51.872;9.688;2023-07-13T11:03:55;2.23;;;1.20;;
4957;SDS011;2494;51.872;9.688;2023-07-13T11:06:42;1.77;;;1.40;;
4957;SDS011;2494;51.872;9.688;2023-07-13T11:09:30;3.10;;;1.50;;
4957;SDS011;2494;51.872;9.688;2023-07-13T11:12:26;2.00;;;1.43;;
4957;SDS011;2494;51.872;9.688;2023-07-13T11:15:13;1.83;;;1.30;;
4957;SDS011;2494;51.872;9.688;2023-07-13T11:18:02;2.30;;;1.27;;
4957;SDS011;2494;51.872;9.688;2023-07-13T11:20:49;2.40;;;1.30;;
4957;SDS011;2494;51.872;9.688;2023-07-13T11:23:34;1.80;;;1.40;;
4957;SDS011;2494;51.872;9.688;2023-07-13T11:26:37;3.33;;;1.30;;
4957;SDS011;2494;51.872;9.688;2023-07-13T11:29:24;3.47;;;1.50;;
4957;SDS011;2494;51.872;9.688;2023-07-13T11:32:21;2.50;;;2.13;;
4957;SDS011;2494;51.872;9.688;2023-07-13T11:35:09;1.50;;;1.40;;
4957;SDS011;2494;51.872;9.688;2023-07-13T11:37:59;4.30;;;1.40;;
4957;SDS011;2494;51.872;9.688;2023-07-13T11:40:44;4.90;;;1.30;;
4957;SDS011;2494;51.872;9.688;2023-07-13T11:43:30;3.70;;;1.50;;
4957;SDS011;2494;51.872;9.688;2023-07-13T11:46:19;1.97;;;1.40;;
4957;SDS011;2494;51.872;9.688;2023-07-13T11:49:04;4.83;;;2.00;;
4957;SDS011;2494;51.872;9.688;2023-07-13T11:51:50;2.43;;;1.70;;
4957;SDS011;2494;51.872;9.688;2023-07-13T11:54:43;2.20;;;1.77;;
4957;SDS011;2494;51.872;9.688;2023-07-13T11:57:38;1.70;;;1.60;;
4957;SDS011;2494;51.872;9.688;2023-07-13T12:00:25;3.93;;;1.53;;
4957;SDS011;2494;51.872;9.688;2023-07-13T12:03:13;4.20;;;1.50;;
4957;SDS011;2494;51.872;9.688;2023-07-13T12:06:03;3.73;;;1.57;;
4957;SDS011;2494;51.872;9.688;2023-07-13T12:08:49;2.70;;;1.40;;
4957;SDS011;2494;51.872;9.688;2023-07-13T12:11:37;2.30;;;1.50;;
4957;SDS011;2494;51.872;9.688;2023-07-13T12:14:22;2.57;;;1.87;;
4957;SDS011;2494;51.872;9.688;2023-07-13T12:17:11;2.17;;;1.50;;
4957;SDS011;2494;51.872;9.688;2023-07-13T12:19:58;2.47;;;1.40;;
4957;SDS011;2494;51.872;9.688;2023-07-13T12:22:45;2.67;;;1.40;;
4957;SDS011;2494;51.872;9.688;2023-07-13T12:25:30;1.80;;;1.40;;
4957;SDS011;2494;51.872;9.688;2023-07-13T12:28:29;2.13;;;1.60;;
4957;SDS011;2494;51.872;9.688;2023-07-13T12:31:25;2.80;;;1.40;;
4957;SDS011;2494;51.872;9.688;2023-07-13T12:34:12;2.50;;;1.27;;
4957;SDS011;2494;51.872;9.688;2023-07-13T12:36:58;4.90;;;1.50;;
4957;SDS011;2494;51.872;9.688;2023-07-13T12:39:46;2.73;;;1.20;;
4957;SDS011;2494;51.872;9.688;2023-07-13T12:42:32;3.40;;;1.50;;
4957;SDS011;2494;51.872;9.688;2023-07-13T12:45:20;3.67;;;1.60;;
4957;SDS011;2494;51.872;9.688;2023-07-13T12:48:10;2.00;;;1.50;;
4957;SDS011;2494;51.872;9.688;2023-07-13T12:51:00;3.50;;;1.30;;
4957;SDS011;2494;51.872;9.688;2023-07-13T12:53:47;1.80;;;1.40;;
4957;SDS011;2494;51.872;9.688;2023-07-13T12:56:33;3.07;;;1.60;;
4957;SDS011;2494;51.872;9.688;2023-07-13T12:59:19;2.97;;;1.23;;
4957;SDS011;2494;51.872;9.688;2023-07-13T13:02:16;2.23;;;1.27;;
4957;SDS011;2494;51.872;9.688;2023-07-13T13:05:06;2.27;;;1.40;;
4957;SDS011;2494;51.872;9.688;2023-07-13T13:07:52;1.83;;;1.50;;
4957;SDS011;2494;51.872;9.688;2023-07-13T13:10:37;2.80;;;1.53;;
4957;SDS011;2494;51.872;9.688;2023-07-13T13:13:23;2.73;;;1.40;;
4957;SDS011;2494;51.872;9.688;2023-07-13T13:16:09;7.50;;;1.27;;
4957;SDS011;2494;51.872;9.688;2023-07-13T13:18:56;2.53;;;1.60;;
4957;SDS011;2494;51.872;9.688;2023-07-13T13:21:42;5.33;;;1.40;;
4957;SDS011;2494;51.872;9.688;2023-07-13T13:24:27;1.87;;;1.30;;
4957;SDS011;2494;51.872;9.688;2023-07-13T13:27:14;1.60;;;1.40;;
4957;SDS011;2494;51.872;9.688;2023-07-13T13:30:01;1.77;;;1.63;;
4957;SDS011;2494;51.872;9.688;2023-07-13T13:32:47;2.70;;;1.43;;
4957;SDS011;2494;51.872;9.688;2023-07-13T13:35:34;3.00;;;1.57;;
4957;SDS011;2494;51.872;9.688;2023-07-13T13:38:20;1.77;;;1.40;;
4957;SDS011;2494;51.872;9.688;2023-07-13T13:41:07;3.27;;;1.80;;
4957;SDS011;2494;51.872;9.688;2023-07-13T13:43:54;3.60;;;1.30;;
4957;SDS011;2494;51.872;9.688;2023-07-13T13:46:39;2.80;;;1.50;;
4957;SDS011;2494;51.872;9.688;2023-07-13T13:49:25;2.97;;;1.50;;
4957;SDS011;2494;51.872;9.688;2023-07-13T13:52:12;4.40;;;1.77;;
4957;SDS011;2494;51.872;9.688;2023-07-13T13:54:57;3.33;;;1.30;;
4957;SDS011;2494;51.872;9.688;2023-07-13T13:57:43;2.53;;;1.30;;
4957;SDS011;2494;51.872;9.688;2023-07-13T14:00:28;2.90;;;1.80;;
4957;SDS011;2494;51.872;9.688;2023-07-13T14:03:14;1.97;;;1.20;;
4957;SDS011;2494;51.872;9.688;2023-07-13T14:05:59;3.23;;;1.53;;
4957;SDS011;2494;51.872;9.688;2023-07-13T14:08:46;1.43;;;1.27;;
4957;SDS011;2494;51.872;9.688;2023-07-13T14:11:31;2.33;;;1.40;;
4957;SDS011;2494;51.872;9.688;2023-07-13T14:14:18;2.13;;;1.53;;
4957;SDS011;2494;51.872;9.688;2023-07-13T14:17:04;2.00;;;1.53;;
4957;SDS011;2494;51.872;9.688;2023-07-13T14:19:49;3.70;;;1.10;;
4957;SDS011;2494;51.872;9.688;2023-07-13T14:22:40;1.73;;;1.63;;
4957;SDS011;2494;51.872;9.688;2023-07-13T14:25:29;2.67;;;1.40;;
4957;SDS011;2494;51.872;9.688;2023-07-13T14:28:17;2.17;;;1.43;;
4957;SDS011;2494;51.872;9.688;2023-07-13T14:31:03;2.23;;;1.30;;
4957;SDS011;2494;51.872;9.688;2023-07-13T14:33:48;5.30;;;1.60;;
4957;SDS011;2494;51.872;9.688;2023-07-13T14:36:34;1.87;;;1.37;;
4957;SDS011;2494;51.872;9.688;2023-07-13T14:39:22;1.87;;;1.50;;
4957;SDS011;2494;51.872;9.688;2023-07-13T14:42:09;3.00;;;1.50;;
4957;SDS011;2494;51.872;9.688;2023-07-13T14:44:54;3.60;;;1.83;;
4957;SDS011;2494;51.872;9.688;2023-07-13T14:47:39;3.90;;;1.67;;
4957;SDS011;2494;51.872;9.688;2023-07-13T14:50:26;2.20;;;1.70;;
4957;SDS011;2494;51.872;9.688;2023-07-13T14:53:13;1.87;;;1.60;;
4957;SDS011;2494;51.872;9.688;2023-07-13T14:55:58;1.40;;;1.20;;
4957;SDS011;2494;51.872;9.688;2023-07-13T14:58:44;4.70;;;1.47;;
4957;SDS011;2494;51.872;9.688;2023-07-13T15:01:29;2.00;;;1.40;;
4957;SDS011;2494;51.872;9.688;2023-07-13T15:04:15;4.50;;;1.67;;
4957;SDS011;2494;51.872;9.688;2023-07-13T15:07:01;1.90;;;1.80;;
4957;SDS011;2494;51.872;9.688;2023-07-13T15:09:47;1.83;;;1.40;;
4957;SDS011;2494;51.872;9.688;2023-07-13T15:12:32;3.40;;;2.10;;
4957;SDS011;2494;51.872;9.688;2023-07-13T15:15:19;3.40;;;1.60;;
4957;SDS011;2494;51.872;9.688;2023-07-13T15:18:04;4.83;;;1.93;;
4957;SDS011;2494;51.872;9.688;2023-07-13T15:20:49;2.10;;;1.70;;
4957;SDS011;2494;51.872;9.688;2023-07-13T15:23:36;1.90;;;1.80;;
4957;SDS011;2494;51.872;9.688;2023-07-13T15:26:21;3.03;;;2.00;;
4957;SDS011;2494;51.872;9.688;2023-07-13T15:29:06;2.00;;;1.80;;
4957;SDS011;2494;51.872;9.688;2023-07-13T15:31:52;3.70;;;1.60;;
4957;SDS011;2494;51.872;9.688;2023-07-13T15:34:37;2.53;;;1.80;;
4957;SDS011;2494;51.872;9.688;2023-07-13T15:37:22;1.50;;;1.40;;
4957;SDS011;2494;51.872;9.688;2023-07-13T15:40:09;2.07;;;1.63;;
4957;SDS011;2494;51.872;9.688;2023-07-13T15:42:55;2.63;;;1.93;;
4957;SDS011;2494;51.872;9.688;2023-07-13T15:45:41;2.87;;;1.80;;
4957;SDS011;2494;51.872;9.688;2023-07-13T15:48:28;3.87;;;1.47;;
4957;SDS011;2494;51.872;9.688;2023-07-13T15:51:17;2.23;;;1.60;;
4957;SDS011;2494;51.872;9.688;2023-07-13T15:54:03;3.57;;;1.93;;
4957;SDS011;2494;51.872;9.688;2023-07-13T15:56:51;1.80;;;1.70;;
4957;SDS011;2494;51.872;9.688;2023-07-13T15:59:37;2.90;;;1.80;;
4957;SDS011;2494;51.872;9.688;2023-07-13T16:02:22;2.03;;;1.93;;
4957;SDS011;2494;51.872;9.688;2023-07-13T16:05:09;2.53;;;1.70;;
4957;SDS011;2494;51.872;9.688;2023-07-13T16:07:54;2.23;;;1.87;;
4957;SDS011;2494;51.872;9.688;2023-07-13T16:10:39;2.23;;;1.70;;
4957;SDS011;2494;51.872;9.688;2023-07-13T16:13:25;2.23;;;1.90;;
4957;SDS011;2494;51.872;9.688;2023-07-13T16:16:10;4.17;;;1.80;;
4957;SDS011;2494;51.872;9.688;2023-07-13T16:18:56;2.20;;;2.00;;
4957;SDS011;2494;51.872;9.688;2023-07-13T16:21:43;2.40;;;2.30;;
4957;SDS011;2494;51.872;9.688;2023-07-13T16:24:29;1.77;;;1.67;;
4957;SDS011;2494;51.872;9.688;2023-07-13T16:27:14;3.00;;;1.80;;
4957;SDS011;2494;51.872;9.688;2023-07-13T16:30:08;2.73;;;1.90;;
4957;SDS011;2494;51.872;9.688;2023-07-13T16:32:55;3.60;;;1.90;;
4957;SDS011;2494;51.872;9.688;2023-07-13T16:35:40;2.20;;;2.00;;
4957;SDS011;2494;51.872;9.688;2023-07-13T16:38:28;2.73;;;2.10;;
4957;SDS011;2494;51.872;9.688;2023-07-13T16:41:14;3.23;;;2.20;;
4957;SDS011;2494;51.872;9.688;2023-07-13T16:43:59;4.57;;;2.60;;
4957;SDS011;2494;51.872;9.688;2023-07-13T16:46:44;3.60;;;1.80;;
4957;SDS011;2494;51.872;9.688;2023-07-13T16:49:31;3.33;;;2.13;;
4957;SDS011;2494;51.872;9.688;2023-07-13T16:52:17;1.97;;;1.87;;
4957;SDS011;2494;51.872;9.688;2023-07-13T16:55:04;2.87;;;2.57;;
4957;SDS011;2494;51.872;9.688;2023-07-13T16:57:50;3.80;;;2.90;;
4957;SDS011;2494;51.872;9.688;2023-07-13T17:00:35;3.40;;;3.07;;
4957;SDS011;2494;51.872;9.688;2023-07-13T17:03:21;2.90;;;2.70;;
4957;SDS011;2494;51.872;9.688;2023-07-13T17:06:19;4.43;;;3.37;;
4957;SDS011;2494;51.872;9.688;2023-07-13T17:09:09;4.50;;;3.13;;
4957;SDS011;2494;51.872;9.688;2023-07-13T17:11:59;2.70;;;2.47;;
4957;SDS011;2494;51.872;9.688;2023-07-13T17:14:45;3.50;;;3.00;;